Pagina principale
METAR-TAF:

METAR-TAF

Aeroporti :

Locarno, Svizzera

Aeroporto di Magadino

latitudine: 46-09-55N, longitudine: 8-52-40E, altezza: 198 m

Osservazione

Il bollettino è stato emesso 1 ora e 13 minuti fa, alle 10:50 UTC
Vento 8 kt da est, variando fra est e sud-est
Temperature 13°C
Umidità 51%
Pressione 1013 hPa
Visibilità 10 km o più

METAR: LSZL 191050Z AUTO 10008KT 080V140 9999NDV NCD 13/03 Q1013 RMK

Ora: 13:03 (12:03 UTC)


TAF: mancante

Osservazioni e previsioni meteorologiche di più di 4000 aeroporti (messaggi METAR e TAF).

Le stazioni disponibili sono rappresentate dai dischi gialli e rossi sulla carta.

Puntare il mouse per vedere il nome della stazione.

Clicca sopra per visualizzare le osservazioni e previsioni meteorologiche.

Per cambiare la mappa : fare clic sui pulsanti verdi con una croce nera per ingrandire, il pulsante verde con un trattino per diminuire, o sulla freccia verde per le mappe adiacenti.


METAR-TAF: